createdAt,value
2022-09-26T00:04:08.137Z,-70
2022-09-26T00:09:10.123Z,-70
2022-09-26T00:14:15.964Z,-71
2022-09-26T00:19:17.949Z,-70
2022-09-26T00:24:20.199Z,-70
2022-09-26T00:29:22.183Z,-70
2022-09-26T00:34:24.378Z,-70
2022-09-26T00:39:26.454Z,-71
2022-09-26T00:44:45.956Z,-69
2022-09-26T00:49:51.013Z,-69
2022-09-26T00:54:56.642Z,-70
2022-09-26T01:00:02.744Z,-68
2022-09-26T01:05:07.117Z,-69
2022-09-26T01:10:10.360Z,-69
2022-09-26T01:15:14.286Z,-69
2022-09-26T01:20:40.681Z,-69
2022-09-26T01:25:42.570Z,-70
2022-09-26T01:30:51.956Z,-69
2022-09-26T01:35:57.195Z,-70
2022-09-26T01:41:11.584Z,-71
2022-09-26T01:46:25.139Z,-69
2022-09-26T01:51:35.748Z,-70
2022-09-26T01:56:41.532Z,-70
2022-09-26T02:01:46.361Z,-70
2022-09-26T02:06:58.084Z,-72
2022-09-26T02:12:05.649Z,-70
2022-09-26T02:17:15.251Z,-70
2022-09-26T02:22:18.197Z,-70
2022-09-26T02:27:20.377Z,-70
2022-09-26T02:32:28.030Z,-70
2022-09-26T02:37:31.015Z,-70
2022-09-26T02:42:53.515Z,-70
2022-09-26T02:48:30.850Z,-70
2022-09-26T02:53:53.731Z,-70
2022-09-26T02:59:16.865Z,-70
2022-09-26T03:04:29.931Z,-69
2022-09-26T03:09:34.374Z,-70
2022-09-26T03:14:40.110Z,-70
2022-09-26T03:19:49.649Z,-69
2022-09-26T03:24:52.821Z,-70
2022-09-26T03:29:55.072Z,-70
2022-09-26T03:34:59.510Z,-70
2022-09-26T03:40:03.952Z,-69
2022-09-26T03:45:25.623Z,-68
2022-09-26T03:50:37.813Z,-69
2022-09-26T03:55:39.828Z,-70
2022-09-26T04:00:43.061Z,-70
2022-09-26T04:05:45.132Z,-69
2022-09-26T04:10:47.164Z,-70
2022-09-26T04:15:56.197Z,-69
2022-09-26T04:21:18.365Z,-68
2022-09-26T04:26:23.720Z,-69
2022-09-26T04:31:27.979Z,-71
2022-09-26T04:36:37.839Z,-68
2022-09-26T04:41:39.945Z,-70
2022-09-26T04:46:42.036Z,-70
2022-09-26T04:51:45.684Z,-77
2022-09-26T04:56:47.669Z,-72
2022-09-26T05:01:49.977Z,-69
2022-09-26T05:06:59.336Z,-68
2022-09-26T05:12:07.404Z,-69
2022-09-26T05:17:11.778Z,-69
2022-09-26T05:22:14.935Z,-67
2022-09-26T05:27:19.198Z,-68
2022-09-26T05:32:21.233Z,-67
2022-09-26T05:37:25.948Z,-67
2022-09-26T05:42:28.637Z,-68
2022-09-26T05:47:34.516Z,-69
2022-09-26T05:52:38.022Z,-68
2022-09-26T05:57:40.153Z,-69
2022-09-26T06:02:42.227Z,-68
2022-09-26T06:08:04.020Z,-68
2022-09-26T06:13:28.869Z,-68
2022-09-26T06:18:39.206Z,-68
2022-09-26T06:23:41.389Z,-67
2022-09-26T06:28:44.684Z,-67
2022-09-26T06:33:55.340Z,-70
2022-09-26T06:39:08.582Z,-66
2022-09-26T06:44:11.692Z,-69
2022-09-26T06:49:25.500Z,-69
2022-09-26T06:54:36.917Z,-70
2022-09-26T06:59:39.170Z,-68
2022-09-26T07:04:53.031Z,-70
2022-09-26T07:10:04.523Z,-69
2022-09-26T07:15:15.518Z,-69
2022-09-26T07:20:20.120Z,-69
2022-09-26T07:25:45.656Z,-69
2022-09-26T07:30:47.911Z,-70
2022-09-26T07:36:09.752Z,-70
2022-09-26T07:41:12.355Z,-68
2022-09-26T07:46:33.801Z,-69
2022-09-26T07:51:36.952Z,-72
2022-09-26T07:56:41.950Z,-72
2022-09-26T08:01:58.182Z,-72
2022-09-26T08:07:09.922Z,-71
2022-09-26T08:12:18.457Z,-72
2022-09-26T08:17:39.232Z,-70
2022-09-26T08:22:41.342Z,-70
2022-09-26T08:27:48.470Z,-70
2022-09-26T08:32:54.809Z,-71
2022-09-26T08:38:01.790Z,-70
2022-09-26T08:44:03.676Z,-71
2022-09-26T08:50:01.022Z,-70
2022-09-26T08:55:14.573Z,-72
2022-09-26T09:00:31.780Z,-73
2022-09-26T09:05:49.832Z,-71
2022-09-26T09:11:02.455Z,-71
2022-09-26T09:16:06.463Z,-71
2022-09-26T09:21:44.908Z,-71
2022-09-26T09:32:57.101Z,-71
2022-09-26T09:38:31.854Z,-71
2022-09-26T09:43:54.591Z,-72
2022-09-26T09:49:09.391Z,-72
2022-09-26T09:54:22.213Z,-72
2022-09-26T09:59:43.189Z,-73
2022-09-26T10:05:17.726Z,-72
2022-09-26T10:10:24.884Z,-72
2022-09-26T10:16:01.308Z,-67
2022-09-26T10:21:39.467Z,-67
2022-09-26T10:26:44.514Z,-69
2022-09-26T10:31:56.266Z,-69
2022-09-26T10:37:21.337Z,-71
2022-09-26T10:42:29.892Z,-69
2022-09-26T10:47:35.194Z,-69
2022-09-26T10:53:10.050Z,-70
2022-09-26T10:58:24.180Z,-70
2022-09-26T11:03:44.844Z,-69
2022-09-26T11:09:02.532Z,-67
2022-09-26T11:14:30.540Z,-70
2022-09-26T11:19:44.773Z,-69
2022-09-26T11:24:59.378Z,-68
2022-09-26T11:30:09.307Z,-68
2022-09-26T11:35:24.449Z,-70
2022-09-26T11:40:44.998Z,-70
2022-09-26T11:46:25.353Z,-71
2022-09-26T11:52:04.664Z,-72
2022-09-26T11:57:31.986Z,-69
2022-09-26T12:03:05.300Z,-68
2022-09-26T12:08:30.726Z,-70
2022-09-26T12:13:54.317Z,-70
2022-09-26T12:19:17.903Z,-69
2022-09-26T12:24:33.612Z,-69
2022-09-26T12:30:07.749Z,-70
2022-09-26T12:35:33.390Z,-69
2022-09-26T12:41:05.632Z,-70
2022-09-26T12:46:27.511Z,-68
2022-09-26T12:52:06.029Z,-69
2022-09-26T12:57:38.783Z,-68
2022-09-26T13:03:16.663Z,-70
2022-09-26T13:08:25.022Z,-68
2022-09-26T13:13:46.457Z,-69
2022-09-26T13:18:51.724Z,-68
2022-09-26T13:23:59.463Z,-68
2022-09-26T13:29:24.127Z,-70
2022-09-26T13:34:29.191Z,-68
2022-09-26T13:39:40.841Z,-69
2022-09-26T13:45:06.108Z,-69
2022-09-26T13:50:30.189Z,-69
2022-09-26T13:55:32.752Z,-70
2022-09-26T14:00:40.576Z,-68
2022-09-26T14:05:43.106Z,-69
2022-09-26T14:10:53.480Z,-70
2022-09-26T14:15:59.668Z,-69
2022-09-26T14:21:12.599Z,-67
2022-09-26T14:26:19.042Z,-71
2022-09-26T14:31:27.396Z,-68
2022-09-26T14:36:35.019Z,-68
2022-09-26T14:41:41.317Z,-70
2022-09-26T14:46:43.924Z,-70
2022-09-26T14:51:49.974Z,-71
2022-09-26T14:57:00.989Z,-71
2022-09-26T15:02:20.238Z,-71
2022-09-26T15:07:24.843Z,-71
2022-09-26T15:12:54.106Z,-70
2022-09-26T15:18:06.037Z,-70
2022-09-26T15:23:23.525Z,-69
2022-09-26T15:28:25.709Z,-68
2022-09-26T15:33:27.914Z,-67
2022-09-26T15:38:29.886Z,-69
2022-09-26T15:43:35.507Z,-68
2022-09-26T15:48:43.024Z,-69
2022-09-26T15:54:09.832Z,-70
2022-09-26T15:59:23.539Z,-70
2022-09-26T16:04:27.276Z,-67
2022-09-26T16:09:43.304Z,-67
2022-09-26T16:14:46.748Z,-67
2022-09-26T16:19:52.997Z,-67
2022-09-26T16:25:02.247Z,-67
2022-09-26T16:30:25.663Z,-68
2022-09-26T16:35:29.775Z,-68
2022-09-26T16:40:36.432Z,-67
2022-09-26T16:45:55.374Z,-72
2022-09-26T16:51:14.641Z,-71
2022-09-26T16:56:19.562Z,-74
2022-09-26T17:01:41.002Z,-73
2022-09-26T17:06:43.307Z,-69
2022-09-26T17:11:49.699Z,-70
2022-09-26T17:16:55.482Z,-74
2022-09-26T17:21:59.449Z,-70
2022-09-26T17:27:04.726Z,-70
2022-09-26T17:32:17.663Z,-68
2022-09-26T17:37:22.278Z,-74
2022-09-26T17:42:25.421Z,-69
2022-09-26T17:47:27.610Z,-71
2022-09-26T17:52:34.870Z,-70
2022-09-26T17:57:41.605Z,-69
2022-09-26T18:02:47.549Z,-70
2022-09-26T18:07:53.612Z,-69
2022-09-26T18:12:59.458Z,-66
2022-09-26T18:18:02.168Z,-70
2022-09-26T18:23:07.572Z,-69
2022-09-26T18:28:14.156Z,-67
2022-09-26T18:33:19.237Z,-69
2022-09-26T18:38:22.386Z,-67
2022-09-26T18:43:29.507Z,-65
2022-09-26T18:48:33.914Z,-65
2022-09-26T18:53:37.629Z,-67
2022-09-26T18:58:39.783Z,-65
2022-09-26T19:03:46.851Z,-68
2022-09-26T19:08:51.901Z,-66
2022-09-26T19:13:56.562Z,-67
2022-09-26T19:19:03.273Z,-67
2022-09-26T19:24:40.039Z,-68
2022-09-26T19:29:47.635Z,-69
2022-09-26T19:34:54.119Z,-65
2022-09-26T19:39:57.797Z,-66
2022-09-26T19:44:59.897Z,-66
2022-09-26T19:50:02.668Z,-68
2022-09-26T19:55:16.086Z,-66
2022-09-26T20:00:19.472Z,-67
2022-09-26T20:05:24.075Z,-68
2022-09-26T20:10:26.304Z,-67
2022-09-26T20:15:28.401Z,-68
2022-09-26T20:20:32.198Z,-68
2022-09-26T20:25:36.002Z,-68
2022-09-26T20:30:54.387Z,-65
2022-09-26T20:36:03.669Z,-65
2022-09-26T20:41:13.195Z,-65
2022-09-26T20:46:15.941Z,-66
2022-09-26T20:51:30.654Z,-66
2022-09-26T20:56:38.993Z,-65
2022-09-26T21:01:48.023Z,-66
2022-09-26T21:06:49.989Z,-65
2022-09-26T21:11:52.020Z,-64
2022-09-26T21:16:54.609Z,-66
2022-09-26T21:21:56.788Z,-65
2022-09-26T21:27:12.224Z,-65
2022-09-26T21:32:17.504Z,-65
2022-09-26T21:37:19.434Z,-66
2022-09-26T21:42:21.733Z,-64
2022-09-26T21:47:24.603Z,-65
2022-09-26T21:52:49.295Z,-65
2022-09-26T21:57:54.249Z,-65
2022-09-26T22:02:59.242Z,-65
2022-09-26T22:08:01.845Z,-65
2022-09-26T22:13:04.377Z,-66
2022-09-26T22:18:06.278Z,-66
2022-09-26T22:23:08.152Z,-66
2022-09-26T22:28:10.053Z,-66
2022-09-26T22:33:11.956Z,-66
2022-09-26T22:38:14.709Z,-66
2022-09-26T22:43:16.638Z,-67
2022-09-26T22:48:18.617Z,-67
2022-09-26T22:53:20.529Z,-68
2022-09-26T22:58:23.746Z,-67
2022-09-26T23:03:25.709Z,-67
2022-09-26T23:08:28.253Z,-68
2022-09-26T23:13:32.858Z,-68
2022-09-26T23:18:35.547Z,-68
2022-09-26T23:23:39.064Z,-66
2022-09-26T23:28:40.953Z,-66
2022-09-26T23:33:43.183Z,-66
2022-09-26T23:38:45.530Z,-67
2022-09-26T23:43:47.402Z,-67
2022-09-26T23:48:49.386Z,-68
2022-09-26T23:53:51.278Z,-67
2022-09-26T23:58:56.433Z,-67
